KHST/HST METAR and TAF weather

Enter ICAO airport designator
Station Type Date Time Source
KHST METAR 2019/12/13 16:56 UTC NOAA

KHST 131656Z AUTO 17006KT 10SM FEW025 SCT033 BKN055 27/21 A2995 RMK AO2 DZB26E34 SLP145 P0000 T02670205


Station Type Date Time Source
KHST Decoded METAR 2019/12/13 16:56 UTC NOAA

Homestead Air Force Base, FL, United States (KHST) 25-29N 080-23W
Dec 13, 2019 - 11:56 AM EST / 2019.12.13 1656 UTC
Wind: from the S (170 degrees) at 7 MPH (6 KT):0
Visibility: 10 mile(s):0
Sky conditions: mostly cloudy
Precipitation last hour: A trace
Temperature: 80.1 F (26.7 C)
Dew Point: 68.9 F (20.5 C)
Relative Humidity: 68%
Pressure (altimeter): 29.95 in. Hg (1014 hPa)
ob: KHST 131656Z AUTO 17006KT 10SM FEW025 SCT033 BKN055 27/21 A2995 RMK AO2 DZB26E34 SLP145 P0000 T02670205
cycle: 17

Station Type Date Time Source
KHST TAF 2019/12/13 12:06 UTC NOAA

TAF KHST 131200Z 1312/1418 11009KT 9999 SCT025 SCT040 QNH2997INS
TEMPO 1318/1322 20010G15KT 4800 -SHRA BKN015 BKN025
BECMG 1401/1402 VRB06KT 9999 SCT015 SCT025 QNH2986INS
BECMG 1415/1416 23012G18KT 9999 SCT025 SCT040 QNH2991INS TX26/1318Z TN20/1410Z

Example: see airport list